sensor_id;sensor_type;location;lat;lon;timestamp;pressure;altitude;pressure_sealevel;temperature;humidity
21109;BME280;10712;52.944;9.098;2023-03-01T00:00:50;103130.13;;;6.57;44.52
21109;BME280;10712;52.944;9.098;2023-03-01T00:03:16;103130.09;;;6.60;44.40
21109;BME280;10712;52.944;9.098;2023-03-01T00:05:46;103124.84;;;6.57;44.48
21109;BME280;10712;52.944;9.098;2023-03-01T00:08:12;103117.78;;;6.47;44.41
21109;BME280;10712;52.944;9.098;2023-03-01T00:10:38;103117.78;;;6.44;44.43
21109;BME280;10712;52.944;9.098;2023-03-01T00:13:04;103121.34;;;6.43;44.51
21109;BME280;10712;52.944;9.098;2023-03-01T00:15:31;103109.00;;;6.42;44.30
21109;BME280;10712;52.944;9.098;2023-03-01T00:17:57;103116.06;;;6.43;44.63
21109;BME280;10712;52.944;9.098;2023-03-01T00:20:23;103109.84;;;6.44;44.80
21109;BME280;10712;52.944;9.098;2023-03-01T00:22:49;103107.19;;;6.47;44.80
21109;BME280;10712;52.944;9.098;2023-03-01T00:25:15;103108.06;;;6.46;44.76
21109;BME280;10712;52.944;9.098;2023-03-01T00:27:41;103112.50;;;6.44;44.61
21109;BME280;10712;52.944;9.098;2023-03-01T00:30:08;103109.00;;;6.40;44.65
21109;BME280;10712;52.944;9.098;2023-03-01T00:32:34;103110.78;;;6.33;44.74
21109;BME280;10712;52.944;9.098;2023-03-01T00:35:00;103101.94;;;6.31;44.72
21109;BME280;10712;52.944;9.098;2023-03-01T00:37:26;103109.00;;;6.29;44.65
21109;BME280;10712;52.944;9.098;2023-03-01T00:39:52;103101.94;;;6.31;44.99
21109;BME280;10712;52.944;9.098;2023-03-01T00:42:17;103100.19;;;6.33;44.97
21109;BME280;10712;52.944;9.098;2023-03-01T00:44:43;103098.41;;;6.32;44.91
21109;BME280;10712;52.944;9.098;2023-03-01T00:47:09;103098.41;;;6.32;45.07
21109;BME280;10712;52.944;9.098;2023-03-01T00:49:35;103098.41;;;6.34;45.32
21109;BME280;10712;52.944;9.098;2023-03-01T00:52:01;103109.91;;;6.35;45.29
21109;BME280;10712;52.944;9.098;2023-03-01T00:54:27;103111.63;;;6.39;45.00
21109;BME280;10712;52.944;9.098;2023-03-01T00:56:52;103113.41;;;6.38;44.78
21109;BME280;10712;52.944;9.098;2023-03-01T00:59:18;103102.84;;;6.35;44.76
21109;BME280;10712;52.944;9.098;2023-03-01T01:01:44;103105.50;;;6.27;45.20
21109;BME280;10712;52.944;9.098;2023-03-01T01:04:12;103100.19;;;6.26;45.20
21109;BME280;10712;52.944;9.098;2023-03-01T01:06:43;103101.97;;;6.25;45.41
21109;BME280;10712;52.944;9.098;2023-03-01T01:09:14;103095.78;;;6.25;45.52
21109;BME280;10712;52.944;9.098;2023-03-01T01:11:48;103088.72;;;6.25;45.62
21109;BME280;10712;52.944;9.098;2023-03-01T01:14:14;103087.88;;;6.20;45.46
21109;BME280;10712;52.944;9.098;2023-03-01T01:16:40;103091.41;;;6.13;45.36
21109;BME280;10712;52.944;9.098;2023-03-01T01:19:06;103084.34;;;6.09;45.52
21109;BME280;10712;52.944;9.098;2023-03-01T01:21:32;103082.63;;;6.08;45.50
21109;BME280;10712;52.944;9.098;2023-03-01T01:23:58;103085.25;;;6.04;45.39
21109;BME280;10712;52.944;9.098;2023-03-01T01:26:28;103080.00;;;6.01;45.39
21109;BME280;10712;52.944;9.098;2023-03-01T01:28:55;103087.91;;;5.98;45.21
21109;BME280;10712;52.944;9.098;2023-03-01T01:31:22;103087.03;;;5.89;45.41
21109;BME280;10712;52.944;9.098;2023-03-01T01:33:52;103081.72;;;5.82;45.30
21109;BME280;10712;52.944;9.098;2023-03-01T01:36:18;103079.09;;;5.76;45.38
21109;BME280;10712;52.944;9.098;2023-03-01T01:38:44;103077.34;;;5.69;45.55
21109;BME280;10712;52.944;9.098;2023-03-01T01:41:12;103077.34;;;5.72;45.46
21109;BME280;10712;52.944;9.098;2023-03-01T01:43:45;103079.09;;;5.76;45.57
21109;BME280;10712;52.944;9.098;2023-03-01T01:46:31;103077.34;;;5.78;45.92
21109;BME280;10712;52.944;9.098;2023-03-01T01:49:06;103079.97;;;5.81;45.90
21109;BME280;10712;52.944;9.098;2023-03-01T01:51:40;103066.72;;;5.81;45.70
21109;BME280;10712;52.944;9.098;2023-03-01T01:54:18;103068.50;;;5.82;45.70
21109;BME280;10712;52.944;9.098;2023-03-01T01:56:52;103065.84;;;5.83;45.70
21109;BME280;10712;52.944;9.098;2023-03-01T01:59:21;103064.97;;;5.86;45.71
21109;BME280;10712;52.944;9.098;2023-03-01T02:01:52;103064.97;;;5.86;45.84
21109;BME280;10712;52.944;9.098;2023-03-01T02:04:18;103065.84;;;5.83;45.58
21109;BME280;10712;52.944;9.098;2023-03-01T02:06:53;103058.81;;;5.79;45.83
21109;BME280;10712;52.944;9.098;2023-03-01T02:09:23;103050.84;;;5.81;45.87
21109;BME280;10712;52.944;9.098;2023-03-01T02:11:51;103053.50;;;5.81;46.02
21109;BME280;10712;52.944;9.098;2023-03-01T02:14:17;103045.56;;;5.81;45.93
21109;BME280;10712;52.944;9.098;2023-03-01T02:16:43;103050.00;;;5.80;45.93
21109;BME280;10712;52.944;9.098;2023-03-01T02:19:28;103047.34;;;5.79;45.85
21109;BME280;10712;52.944;9.098;2023-03-01T02:22:15;103046.47;;;5.78;45.77
21109;BME280;10712;52.944;9.098;2023-03-01T02:24:51;103044.72;;;5.77;45.77
21109;BME280;10712;52.944;9.098;2023-03-01T02:27:26;103044.72;;;5.76;45.62
21109;BME280;10712;52.944;9.098;2023-03-01T02:29:54;103050.88;;;5.75;45.77
21109;BME280;10712;52.944;9.098;2023-03-01T02:32:20;103035.00;;;5.75;45.55
21109;BME280;10712;52.944;9.098;2023-03-01T02:34:55;103036.78;;;5.73;45.74
21109;BME280;10712;52.944;9.098;2023-03-01T02:37:23;103042.97;;;5.70;45.50
21109;BME280;10712;52.944;9.098;2023-03-01T02:39:59;103039.44;;;5.70;45.62
21109;BME280;10712;52.944;9.098;2023-03-01T02:42:32;103045.59;;;5.69;45.66
21109;BME280;10712;52.944;9.098;2023-03-01T02:44:59;103041.22;;;5.66;45.44
21109;BME280;10712;52.944;9.098;2023-03-01T02:47:25;103044.72;;;5.64;45.30
21109;BME280;10712;52.944;9.098;2023-03-01T02:49:51;103031.50;;;5.61;45.54
21109;BME280;10712;52.944;9.098;2023-03-01T02:55:14;103033.28;;;5.59;45.68
21109;BME280;10712;52.944;9.098;2023-03-01T02:57:45;103031.53;;;5.58;45.67
21109;BME280;10712;52.944;9.098;2023-03-01T03:00:19;103031.50;;;5.54;45.61
21109;BME280;10712;52.944;9.098;2023-03-01T03:02:49;103026.22;;;5.48;45.35
21109;BME280;10712;52.944;9.098;2023-03-01T03:05:28;103030.66;;;5.45;45.61
21109;BME280;10712;52.944;9.098;2023-03-01T03:07:59;103032.41;;;5.46;45.62
21109;BME280;10712;52.944;9.098;2023-03-01T03:10:36;103037.72;;;5.46;45.59
21109;BME280;10712;52.944;9.098;2023-03-01T03:13:07;103029.75;;;5.47;45.32
21109;BME280;10712;52.944;9.098;2023-03-01T03:15:35;103027.97;;;5.46;45.55
21109;BME280;10712;52.944;9.098;2023-03-01T03:18:07;103027.97;;;5.46;45.76
21109;BME280;10712;52.944;9.098;2023-03-01T03:20:35;103028.88;;;5.47;45.68
21109;BME280;10712;52.944;9.098;2023-03-01T03:23:02;103019.19;;;5.47;45.45
21109;BME280;10712;52.944;9.098;2023-03-01T03:25:29;103009.50;;;5.45;45.46
21109;BME280;10712;52.944;9.098;2023-03-01T03:27:55;103014.78;;;5.45;45.53
21109;BME280;10712;52.944;9.098;2023-03-01T03:30:26;103011.25;;;5.43;45.64
21109;BME280;10712;52.944;9.098;2023-03-01T03:32:52;103009.50;;;5.42;45.68
21109;BME280;10712;52.944;9.098;2023-03-01T03:35:37;103013.00;;;5.41;45.54
21109;BME280;10712;52.944;9.098;2023-03-01T03:38:06;103014.78;;;5.33;45.38
21109;BME280;10712;52.944;9.098;2023-03-01T03:40:39;103006.88;;;5.30;45.60
21109;BME280;10712;52.944;9.098;2023-03-01T03:43:10;103003.34;;;5.28;45.56
21109;BME280;10712;52.944;9.098;2023-03-01T03:45:36;102996.28;;;5.28;45.73
21109;BME280;10712;52.944;9.098;2023-03-01T03:48:06;102996.28;;;5.28;45.56
21109;BME280;10712;52.944;9.098;2023-03-01T03:50:32;102989.22;;;5.27;45.74
21109;BME280;10712;52.944;9.098;2023-03-01T03:53:03;102983.09;;;5.24;45.30
21109;BME280;10712;52.944;9.098;2023-03-01T03:55:29;102983.06;;;5.19;45.39
21109;BME280;10712;52.944;9.098;2023-03-01T03:58:00;102988.38;;;5.11;45.56
21109;BME280;10712;52.944;9.098;2023-03-01T04:00:42;102981.31;;;5.12;45.44
21109;BME280;10712;52.944;9.098;2023-03-01T04:03:10;102987.47;;;5.08;45.35
21109;BME280;10712;52.944;9.098;2023-03-01T04:05:39;102984.81;;;5.05;45.60
21109;BME280;10712;52.944;9.098;2023-03-01T04:08:06;102978.69;;;5.03;45.48
21109;BME280;10712;52.944;9.098;2023-03-01T04:10:43;102983.94;;;5.06;45.79
21109;BME280;10712;52.944;9.098;2023-03-01T04:13:16;102977.78;;;5.08;45.82
21109;BME280;10712;52.944;9.098;2023-03-01T04:15:43;102975.16;;;5.10;45.63
21109;BME280;10712;52.944;9.098;2023-03-01T04:18:14;102963.69;;;5.06;45.59
21109;BME280;10712;52.944;9.098;2023-03-01T04:20:41;102973.41;;;5.03;45.59
21109;BME280;10712;52.944;9.098;2023-03-01T04:23:14;102965.47;;;5.00;45.76
21109;BME280;10712;52.944;9.098;2023-03-01T04:25:51;102968.09;;;5.00;45.88
21109;BME280;10712;52.944;9.098;2023-03-01T04:28:23;102971.63;;;5.03;45.57
21109;BME280;10712;52.944;9.098;2023-03-01T04:30:51;102976.91;;;5.02;45.72
21109;BME280;10712;52.944;9.098;2023-03-01T04:33:18;102970.75;;;5.04;45.82
21109;BME280;10712;52.944;9.098;2023-03-01T04:35:44;102982.19;;;5.06;45.53
21109;BME280;10712;52.944;9.098;2023-03-01T04:38:10;102979.56;;;5.02;45.42
21109;BME280;10712;52.944;9.098;2023-03-01T04:40:37;102964.59;;;4.98;45.73
21109;BME280;10712;52.944;9.098;2023-03-01T04:43:04;102973.38;;;5.00;45.83
21109;BME280;10712;52.944;9.098;2023-03-01T04:45:32;102966.34;;;5.02;45.95
21109;BME280;10712;52.944;9.098;2023-03-01T04:48:00;102964.59;;;5.04;45.79
21109;BME280;10712;52.944;9.098;2023-03-01T04:50:25;102949.63;;;5.01;45.91
21109;BME280;10712;52.944;9.098;2023-03-01T04:52:52;102962.81;;;5.01;45.86
21109;BME280;10712;52.944;9.098;2023-03-01T04:55:17;102973.38;;;5.01;46.03
21109;BME280;10712;52.944;9.098;2023-03-01T04:57:43;102959.28;;;5.01;45.90
21109;BME280;10712;52.944;9.098;2023-03-01T05:00:12;102963.69;;;4.99;45.94
21109;BME280;10712;52.944;9.098;2023-03-01T05:03:00;102959.28;;;4.92;45.37
21109;BME280;10712;52.944;9.098;2023-03-01T05:05:37;102968.09;;;4.88;45.78
21109;BME280;10712;52.944;9.098;2023-03-01T05:08:07;102968.09;;;4.89;45.53
21109;BME280;10712;52.944;9.098;2023-03-01T05:10:35;102972.50;;;4.87;45.60
21109;BME280;10712;52.944;9.098;2023-03-01T05:13:02;102968.09;;;4.88;45.76
21109;BME280;10712;52.944;9.098;2023-03-01T05:15:31;102973.38;;;4.89;45.57
21109;BME280;10712;52.944;9.098;2023-03-01T05:17:59;102972.50;;;4.87;45.42
21109;BME280;10712;52.944;9.098;2023-03-01T05:20:29;102959.28;;;4.86;45.70
21109;BME280;10712;52.944;9.098;2023-03-01T05:23:00;102962.81;;;4.82;45.55
21109;BME280;10712;52.944;9.098;2023-03-01T05:25:27;102958.41;;;4.68;45.48
21109;BME280;10712;52.944;9.098;2023-03-01T05:27:52;102955.75;;;4.56;45.40
21109;BME280;10712;52.944;9.098;2023-03-01T05:30:18;102956.63;;;4.54;45.45
21109;BME280;10712;52.944;9.098;2023-03-01T05:32:49;102962.75;;;4.57;45.54
21109;BME280;10712;52.944;9.098;2023-03-01T05:35:17;102960.16;;;4.62;45.63
21109;BME280;10712;52.944;9.098;2023-03-01T05:37:46;102963.69;;;4.62;45.57
21109;BME280;10712;52.944;9.098;2023-03-01T05:40:16;102972.47;;;4.63;45.89
21109;BME280;10712;52.944;9.098;2023-03-01T05:42:52;102973.31;;;4.57;45.51
21109;BME280;10712;52.944;9.098;2023-03-01T05:45:21;102978.63;;;4.54;45.57
21109;BME280;10712;52.944;9.098;2023-03-01T05:47:49;102974.22;;;4.56;45.62
21109;BME280;10712;52.944;9.098;2023-03-01T05:50:25;102976.84;;;4.59;45.69
21109;BME280;10712;52.944;9.098;2023-03-01T05:53:00;102976.88;;;4.65;45.98
21109;BME280;10712;52.944;9.098;2023-03-01T05:55:29;102974.22;;;4.67;45.80
21109;BME280;10712;52.944;9.098;2023-03-01T05:57:54;102976.91;;;4.70;45.87
21109;BME280;10712;52.944;9.098;2023-03-01T06:00:21;102972.47;;;4.70;45.55
21109;BME280;10712;52.944;9.098;2023-03-01T06:02:50;102980.41;;;4.73;45.52
21109;BME280;10712;52.944;9.098;2023-03-01T06:05:18;102984.78;;;4.71;45.82
21109;BME280;10712;52.944;9.098;2023-03-01T06:07:43;102983.91;;;4.66;46.01
21109;BME280;10712;52.944;9.098;2023-03-01T06:10:11;102982.16;;;4.68;46.02
21109;BME280;10712;52.944;9.098;2023-03-01T06:12:40;102979.53;;;4.73;46.07
21109;BME280;10712;52.944;9.098;2023-03-01T06:15:08;102978.63;;;4.72;45.83
21109;BME280;10712;52.944;9.098;2023-03-01T06:17:39;102982.16;;;4.71;46.22
21109;BME280;10712;52.944;9.098;2023-03-01T06:20:13;102976.88;;;4.71;46.20
21109;BME280;10712;52.944;9.098;2023-03-01T06:22:40;102979.53;;;4.73;46.53
21109;BME280;10712;52.944;9.098;2023-03-01T06:25:08;102980.41;;;4.73;46.39
21109;BME280;10712;52.944;9.098;2023-03-01T06:27:35;102977.75;;;4.73;46.48
21109;BME280;10712;52.944;9.098;2023-03-01T06:30:00;102968.94;;;4.71;46.60
21109;BME280;10712;52.944;9.098;2023-03-01T06:32:27;102968.09;;;4.75;46.36
21109;BME280;10712;52.944;9.098;2023-03-01T06:34:52;102968.94;;;4.78;46.27
21109;BME280;10712;52.944;9.098;2023-03-01T06:37:18;102975.16;;;4.77;46.10
21109;BME280;10712;52.944;9.098;2023-03-01T06:39:44;102978.66;;;4.75;46.14
21109;BME280;10712;52.944;9.098;2023-03-01T06:42:10;102969.84;;;4.73;46.60
21109;BME280;10712;52.944;9.098;2023-03-01T06:44:36;102976.88;;;4.74;46.80
21109;BME280;10712;52.944;9.098;2023-03-01T06:47:03;102968.06;;;4.60;46.53
21109;BME280;10712;52.944;9.098;2023-03-01T06:49:29;102974.25;;;4.62;46.49
21109;BME280;10712;52.944;9.098;2023-03-01T06:51:56;102968.94;;;4.65;46.57
21109;BME280;10712;52.944;9.098;2023-03-01T06:54:22;102969.84;;;4.73;46.80
21109;BME280;10712;52.944;9.098;2023-03-01T06:56:49;102967.22;;;4.83;46.50
21109;BME280;10712;52.944;9.098;2023-03-01T06:59:16;102968.09;;;4.82;46.85
21109;BME280;10712;52.944;9.098;2023-03-01T07:01:42;102971.63;;;4.84;47.01
21109;BME280;10712;52.944;9.098;2023-03-01T07:04:10;102972.50;;;4.89;47.20
21109;BME280;10712;52.944;9.098;2023-03-01T07:06:36;102970.75;;;4.91;47.15
21109;BME280;10712;52.944;9.098;2023-03-01T07:09:02;102971.63;;;4.90;46.98
21109;BME280;10712;52.944;9.098;2023-03-01T07:11:28;102977.81;;;4.96;47.18
21109;BME280;10712;52.944;9.098;2023-03-01T07:13:53;102976.91;;;5.08;47.21
21109;BME280;10712;52.944;9.098;2023-03-01T07:16:20;102975.13;;;5.13;47.28
21109;BME280;10712;52.944;9.098;2023-03-01T07:18:47;102973.38;;;5.15;47.37
21109;BME280;10712;52.944;9.098;2023-03-01T07:21:14;102976.03;;;5.23;47.33
21109;BME280;10712;52.944;9.098;2023-03-01T07:23:41;102971.59;;;5.26;47.36
21109;BME280;10712;52.944;9.098;2023-03-01T07:26:07;102969.88;;;5.31;47.29
21109;BME280;10712;52.944;9.098;2023-03-01T07:28:33;102971.63;;;5.37;47.46
21109;BME280;10712;52.944;9.098;2023-03-01T07:31:05;102971.63;;;5.38;47.62
21109;BME280;10712;52.944;9.098;2023-03-01T07:33:32;102964.56;;;5.43;47.49
21109;BME280;10712;52.944;9.098;2023-03-01T07:36:00;102967.19;;;5.52;47.44
21109;BME280;10712;52.944;9.098;2023-03-01T07:38:28;102973.34;;;5.54;47.45
21109;BME280;10712;52.944;9.098;2023-03-01T07:41:01;102970.69;;;5.61;47.68
21109;BME280;10712;52.944;9.098;2023-03-01T07:43:30;102975.06;;;5.68;47.75
21109;BME280;10712;52.944;9.098;2023-03-01T07:46:01;102971.56;;;5.72;47.89
21109;BME280;10712;52.944;9.098;2023-03-01T07:48:28;102972.41;;;5.78;48.03
21109;BME280;10712;52.944;9.098;2023-03-01T07:50:54;102969.75;;;5.89;47.57
21109;BME280;10712;52.944;9.098;2023-03-01T07:53:20;102969.72;;;5.95;47.77
21109;BME280;10712;52.944;9.098;2023-03-01T07:55:46;102963.53;;;6.05;47.86
21109;BME280;10712;52.944;9.098;2023-03-01T07:58:11;102964.38;;;6.10;47.93
21109;BME280;10712;52.944;9.098;2023-03-01T08:00:37;102970.53;;;6.18;48.07
21109;BME280;10712;52.944;9.098;2023-03-01T08:03:03;102974.03;;;6.26;48.20
21109;BME280;10712;52.944;9.098;2023-03-01T08:05:29;102967.81;;;6.30;48.17
21109;BME280;10712;52.944;9.098;2023-03-01T08:07:55;102964.28;;;6.35;48.18
21109;BME280;10712;52.944;9.098;2023-03-01T08:10:21;102962.47;;;6.40;48.14
21109;BME280;10712;52.944;9.098;2023-03-01T08:12:47;102961.56;;;6.45;48.31
21109;BME280;10712;52.944;9.098;2023-03-01T08:15:12;102965.94;;;6.51;48.26
21109;BME280;10712;52.944;9.098;2023-03-01T08:17:38;102957.97;;;6.57;48.36
21109;BME280;10712;52.944;9.098;2023-03-01T08:20:05;102965.84;;;6.66;48.31
21109;BME280;10712;52.944;9.098;2023-03-01T08:22:32;102959.63;;;6.71;48.19
21109;BME280;10712;52.944;9.098;2023-03-01T08:24:58;102964.03;;;6.77;48.37
21109;BME280;10712;52.944;9.098;2023-03-01T08:27:24;102958.69;;;6.82;48.22
21109;BME280;10712;52.944;9.098;2023-03-01T08:29:50;102956.88;;;6.88;48.29
21109;BME280;10712;52.944;9.098;2023-03-01T08:32:15;102957.69;;;6.93;48.18
21109;BME280;10712;52.944;9.098;2023-03-01T08:34:41;102961.19;;;7.00;48.59
21109;BME280;10712;52.944;9.098;2023-03-01T08:37:07;102962.00;;;7.06;48.35
21109;BME280;10712;52.944;9.098;2023-03-01T08:39:32;102958.41;;;7.17;48.44
21109;BME280;10712;52.944;9.098;2023-03-01T08:41:58;102950.34;;;7.27;48.51
21109;BME280;10712;52.944;9.098;2023-03-01T08:44:24;102947.63;;;7.33;48.47
21109;BME280;10712;52.944;9.098;2023-03-01T08:46:50;102946.66;;;7.40;48.63
21109;BME280;10712;52.944;9.098;2023-03-01T08:49:19;102946.59;;;7.48;48.65
21109;BME280;10712;52.944;9.098;2023-03-01T08:51:47;102948.28;;;7.55;48.81
21109;BME280;10712;52.944;9.098;2023-03-01T08:54:16;102936.72;;;7.62;48.70
21109;BME280;10712;52.944;9.098;2023-03-01T08:56:42;102946.38;;;7.69;48.79
21109;BME280;10712;52.944;9.098;2023-03-01T08:59:10;102936.41;;;7.89;48.60
21109;BME280;10712;52.944;9.098;2023-03-01T09:01:36;102935.47;;;7.95;48.88
21109;BME280;10712;52.944;9.098;2023-03-01T09:04:03;102934.44;;;8.04;48.84
21109;BME280;10712;52.944;9.098;2023-03-01T09:06:31;102932.59;;;8.12;48.81
21109;BME280;10712;52.944;9.098;2023-03-01T09:08:58;102934.25;;;8.19;48.74
21109;BME280;10712;52.944;9.098;2023-03-01T09:11:24;102927.06;;;8.28;48.64
21109;BME280;10712;52.944;9.098;2023-03-01T09:13:51;102931.44;;;8.34;48.64
21109;BME280;10712;52.944;9.098;2023-03-01T09:16:20;102930.44;;;8.41;48.58
21109;BME280;10712;52.944;9.098;2023-03-01T09:18:51;102927.69;;;8.47;48.32
21109;BME280;10712;52.944;9.098;2023-03-01T09:21:20;102929.28;;;8.59;48.24
21109;BME280;10712;52.944;9.098;2023-03-01T09:23:48;102931.78;;;8.69;48.21
21109;BME280;10712;52.944;9.098;2023-03-01T09:26:20;102926.28;;;8.80;47.79
21109;BME280;10712;52.944;9.098;2023-03-01T09:28:53;102926.09;;;8.92;47.83
21109;BME280;10712;52.944;9.098;2023-03-01T09:31:21;102924.00;;;9.11;47.64
21109;BME280;10712;52.944;9.098;2023-03-01T09:33:51;102925.47;;;9.27;47.29
21109;BME280;10712;52.944;9.098;2023-03-01T09:36:20;102928.84;;;9.38;47.19
21109;BME280;10712;52.944;9.098;2023-03-01T09:38:47;102931.25;;;9.52;46.89
21109;BME280;10712;52.944;9.098;2023-03-01T09:41:49;102919.53;;;9.61;46.63
21109;BME280;10712;52.944;9.098;2023-03-01T09:44:41;102922.88;;;9.72;46.32
21109;BME280;10712;52.944;9.098;2023-03-01T09:47:26;102924.47;;;9.80;45.77
21109;BME280;10712;52.944;9.098;2023-03-01T09:50:16;102915.38;;;9.89;45.30
21109;BME280;10712;52.944;9.098;2023-03-01T09:55:25;102915.81;;;10.11;44.72
21109;BME280;10712;52.944;9.098;2023-03-01T10:06:34;102910.38;;;10.57;44.45
21109;BME280;10712;52.944;9.098;2023-03-01T10:09:13;102910.13;;;10.66;44.25
21109;BME280;10712;52.944;9.098;2023-03-01T10:11:53;102906.34;;;10.76;44.14
21109;BME280;10712;52.944;9.098;2023-03-01T10:18:12;102905.66;;;11.03;43.89
21109;BME280;10712;52.944;9.098;2023-03-01T10:20:50;102903.50;;;11.18;43.84
21109;BME280;10712;52.944;9.098;2023-03-01T10:23:17;102903.09;;;11.33;43.57
21109;BME280;10712;52.944;9.098;2023-03-01T10:25:57;102894.94;;;11.39;43.38
21109;BME280;10712;52.944;9.098;2023-03-01T10:28:51;102901.00;;;11.44;42.83
21109;BME280;10712;52.944;9.098;2023-03-01T10:31:26;102899.88;;;11.53;42.34
21109;BME280;10712;52.944;9.098;2023-03-01T10:33:54;102900.59;;;11.59;42.09
21109;BME280;10712;52.944;9.098;2023-03-01T10:36:23;102897.59;;;11.70;42.13
21109;BME280;10712;52.944;9.098;2023-03-01T10:38:54;102902.53;;;11.85;41.81
21109;BME280;10712;52.944;9.098;2023-03-01T10:41:24;102890.56;;;11.98;41.87
21109;BME280;10712;52.944;9.098;2023-03-01T10:43:59;102897.38;;;12.10;41.75
21109;BME280;10712;52.944;9.098;2023-03-01T10:46:35;102894.31;;;12.22;41.54
21109;BME280;10712;52.944;9.098;2023-03-01T10:49:21;102881.44;;;12.35;41.27
21109;BME280;10712;52.944;9.098;2023-03-01T10:51:50;102876.56;;;12.47;40.87
21109;BME280;10712;52.944;9.098;2023-03-01T10:54:31;102886.81;;;12.61;40.70
21109;BME280;10712;52.944;9.098;2023-03-01T10:57:01;102890.88;;;12.73;40.54
21109;BME280;10712;52.944;9.098;2023-03-01T10:59:37;102884.59;;;12.74;40.33
21109;BME280;10712;52.944;9.098;2023-03-01T11:02:26;102888.09;;;12.76;40.46
21109;BME280;10712;52.944;9.098;2023-03-01T11:05:20;102885.34;;;12.79;40.08
21109;BME280;10712;52.944;9.098;2023-03-01T11:07:55;102887.59;;;12.91;40.18
21109;BME280;10712;52.944;9.098;2023-03-01T11:10:36;102882.69;;;13.03;39.91
21109;BME280;10712;52.944;9.098;2023-03-01T11:13:28;102870.63;;;13.18;39.87
21109;BME280;10712;52.944;9.098;2023-03-01T11:16:05;102875.22;;;13.39;39.64
21109;BME280;10712;52.944;9.098;2023-03-01T11:18:32;102869.19;;;13.58;38.76
21109;BME280;10712;52.944;9.098;2023-03-01T11:21:01;102865.63;;;13.57;38.76
21109;BME280;10712;52.944;9.098;2023-03-01T11:23:30;102853.09;;;13.58;39.02
21109;BME280;10712;52.944;9.098;2023-03-01T11:26:05;102861.84;;;13.63;39.15
21109;BME280;10712;52.944;9.098;2023-03-01T11:28:37;102859.09;;;13.64;39.13
21109;BME280;10712;52.944;9.098;2023-03-01T11:31:10;102852.81;;;13.65;39.23
21109;BME280;10712;52.944;9.098;2023-03-01T11:36:44;102850.91;;;13.92;39.14
21109;BME280;10712;52.944;9.098;2023-03-01T11:39:42;102854.16;;;14.00;39.00
21109;BME280;10712;52.944;9.098;2023-03-01T11:42:20;102848.69;;;14.03;39.15
21109;BME280;10712;52.944;9.098;2023-03-01T11:44:55;102847.63;;;14.07;39.11
21109;BME280;10712;52.944;9.098;2023-03-01T11:50:47;102841.66;;;14.23;39.18
21109;BME280;10712;52.944;9.098;2023-03-01T12:05:02;102817.78;;;14.80;38.80
21109;BME280;10712;52.944;9.098;2023-03-01T12:07:46;102810.84;;;14.96;39.12
21109;BME280;10712;52.944;9.098;2023-03-01T12:10:48;102811.38;;;15.05;39.02
21109;BME280;10712;52.944;9.098;2023-03-01T12:19:16;102801.28;;;15.10;38.63
21109;BME280;10712;52.944;9.098;2023-03-01T12:22:21;102798.16;;;15.00;38.74
21109;BME280;10712;52.944;9.098;2023-03-01T12:25:16;102799.44;;;14.91;39.22
21109;BME280;10712;52.944;9.098;2023-03-01T12:31:44;102784.94;;;14.95;39.20
21109;BME280;10712;52.944;9.098;2023-03-01T12:40:53;102772.50;;;15.13;38.70
21109;BME280;10712;52.944;9.098;2023-03-01T12:43:39;102779.97;;;15.07;38.91
21109;BME280;10712;52.944;9.098;2023-03-01T12:46:31;102764.66;;;15.09;38.86
21109;BME280;10712;52.944;9.098;2023-03-01T12:49:16;102773.22;;;15.17;39.11
21109;BME280;10712;52.944;9.098;2023-03-01T12:51:57;102763.09;;;15.23;38.94
21109;BME280;10712;52.944;9.098;2023-03-01T12:54:30;102763.66;;;15.30;38.88
21109;BME280;10712;52.944;9.098;2023-03-01T12:57:28;102759.06;;;15.33;38.83
21109;BME280;10712;52.944;9.098;2023-03-01T13:00:32;102759.63;;;15.40;38.72
21109;BME280;10712;52.944;9.098;2023-03-01T13:09:46;102746.72;;;15.48;38.13
21109;BME280;10712;52.944;9.098;2023-03-01T13:17:52;102729.09;;;15.80;37.41
21109;BME280;10712;52.944;9.098;2023-03-01T13:20:48;102727.88;;;15.68;37.55
21109;BME280;10712;52.944;9.098;2023-03-01T13:31:02;102719.53;;;15.92;37.38
21109;BME280;10712;52.944;9.098;2023-03-01T13:35:58;102725.22;;;15.86;37.14
21109;BME280;10712;52.944;9.098;2023-03-01T13:38:48;102717.22;;;15.84;37.18
21109;BME280;10712;52.944;9.098;2023-03-01T13:44:38;102709.25;;;15.83;37.48
21109;BME280;10712;52.944;9.098;2023-03-01T13:47:17;102710.97;;;15.84;37.70
21109;BME280;10712;52.944;9.098;2023-03-01T13:49:55;102712.03;;;15.81;37.55
21109;BME280;10712;52.944;9.098;2023-03-01T13:52:43;102705.16;;;15.93;37.43
21109;BME280;10712;52.944;9.098;2023-03-01T13:55:36;102706.91;;;15.94;37.53
21109;BME280;10712;52.944;9.098;2023-03-01T13:58:15;102702.34;;;15.96;37.65
21109;BME280;10712;52.944;9.098;2023-03-01T14:00:42;102704.84;;;15.99;37.92
21109;BME280;10712;52.944;9.098;2023-03-01T14:03:14;102705.03;;;15.96;38.02
21109;BME280;10712;52.944;9.098;2023-03-01T14:06:06;102701.84;;;15.88;38.21
21109;BME280;10712;52.944;9.098;2023-03-01T14:08:34;102700.22;;;15.84;38.22
21109;BME280;10712;52.944;9.098;2023-03-01T14:11:49;102691.03;;;15.70;38.31
21109;BME280;10712;52.944;9.098;2023-03-01T14:14:23;102699.25;;;15.67;38.42
21109;BME280;10712;52.944;9.098;2023-03-01T14:20:02;102684.56;;;15.74;38.69
21109;BME280;10712;52.944;9.098;2023-03-01T14:22:35;102675.69;;;15.72;38.50
21109;BME280;10712;52.944;9.098;2023-03-01T14:25:05;102676.16;;;15.63;38.49
21109;BME280;10712;52.944;9.098;2023-03-01T14:27:39;102667.13;;;15.64;38.54
21109;BME280;10712;52.944;9.098;2023-03-01T14:30:18;102674.19;;;15.67;38.73
21109;BME280;10712;52.944;9.098;2023-03-01T14:32:58;102667.00;;;15.67;38.69
21109;BME280;10712;52.944;9.098;2023-03-01T14:35:36;102652.75;;;15.65;39.09
21109;BME280;10712;52.944;9.098;2023-03-01T14:38:02;102659.75;;;15.69;39.07
21109;BME280;10712;52.944;9.098;2023-03-01T14:40:35;102653.91;;;15.79;39.07